KDIK/DIK METAR and TAF weather

Enter ICAO airport designator
Station Type Date Time Source
KDIK METAR 2021/05/10 21:56 UTC NOAA

KDIK 102156Z AUTO 10SM CLR 14/M08 A3021 RMK AO2 SLP245 T01391078


Station Type Date Time Source
KDIK Decoded METAR 2021/05/10 21:56 UTC NOAA

THEODORE ROOSEVELT REGIONAL, ND, United States (KDIK) 46-48N 102-48W 788M
May 10, 2021 - 05:56 PM EDT / 2021.05.10 2156 UTC
Visibility: 10 mile(s):0
Sky conditions: clear
Temperature: 57.0 F (13.9 C)
Dew Point: 18.0 F (-7.8 C)
Relative Humidity: 21%
Pressure (altimeter): 30.21 in. Hg (1023 hPa)
ob: KDIK 102156Z AUTO 10SM CLR 14/M08 A3021 RMK AO2 SLP245 T01391078
cycle: 22

Station Type Date Time Source
KDIK TAF 2021/05/10 18:48 UTC NOAA

TAF KDIK 101727Z 1018/1118 07008KT P6SM FEW250
FM110200 12005KT P6SM SKC
FM110600 18007KT P6SM SKC

Example: see airport list